createdAt,value
2017-10-11T13:29:22.811Z,72.6
2017-10-11T13:30:24.270Z,71.1
2017-10-11T13:31:25.677Z,70.5
2017-10-11T13:32:27.078Z,69.8
2017-10-11T13:34:08.017Z,70.3
2017-10-11T13:35:09.460Z,70.3
2017-10-11T13:36:11.152Z,69.4
2017-10-11T13:37:12.592Z,69.4
2017-10-11T13:38:14.077Z,70.2
2017-10-11T13:39:15.469Z,70.3
2017-10-11T13:40:16.896Z,71.2
2017-10-11T13:41:18.284Z,71.4
2017-10-11T13:42:19.687Z,70.2
2017-10-11T13:43:21.099Z,69.3
2017-10-11T13:44:22.516Z,70.5
2017-10-11T13:45:23.956Z,71.5
2017-10-11T13:46:25.361Z,70.2
2017-10-11T13:47:26.811Z,69.5
2017-10-11T13:48:28.211Z,68.8
2017-10-11T13:50:11.017Z,69.3
2017-10-11T13:51:12.518Z,69.6
2017-10-11T13:52:15.217Z,69.9
2017-10-11T13:53:17.413Z,68.4
2017-10-11T13:54:20.930Z,68.9
2017-10-11T13:55:23.452Z,69.5
2017-10-11T13:56:26.484Z,69.1
2017-10-11T13:57:30.047Z,70.2
2017-10-11T13:58:32.193Z,71.2
2017-10-11T13:59:34.106Z,71.7
2017-10-11T14:00:37.616Z,72.2
2017-10-11T14:01:39.841Z,72.2
2017-10-11T14:02:42.090Z,71.1
2017-10-11T14:03:44.450Z,70.5
2017-10-11T14:04:47.266Z,70.5
2017-10-11T14:05:50.701Z,72.2
2017-10-11T14:06:53.031Z,71.7
2017-10-11T14:07:57.412Z,72.1
2017-10-11T14:09:00.040Z,71.7
2017-10-11T14:10:02.803Z,73.0
2017-10-11T14:11:05.990Z,72.9
2017-10-11T14:12:08.097Z,72.8
2017-10-11T14:13:10.312Z,72.3
2017-10-11T14:14:12.021Z,72.4
2017-10-11T14:15:14.094Z,72.8
2017-10-11T14:16:15.903Z,73.2
2017-10-11T14:17:17.778Z,73.1
2017-10-11T14:18:19.676Z,72.9
2017-10-11T14:19:21.333Z,72.7
2017-10-11T14:21:06.323Z,72.2
2017-10-11T14:22:08.078Z,71.1
2017-10-11T14:23:30.202Z,72.2
2017-10-11T14:24:31.817Z,72.2
2017-10-11T14:25:53.629Z,71.0
2017-10-11T14:26:56.289Z,71.0
2017-10-11T14:28:18.790Z,70.0
2017-10-11T14:29:20.291Z,70.1
2017-10-11T14:30:42.658Z,70.1
2017-10-11T14:31:44.350Z,69.0
2017-10-11T14:32:46.344Z,68.3
2017-10-11T14:33:47.950Z,67.5
2017-10-11T14:34:50.009Z,66.0
2017-10-11T14:35:51.898Z,65.5
2017-10-11T14:36:54.265Z,65.2
2017-10-11T14:37:56.279Z,66.0
2017-10-11T14:38:58.577Z,66.5
2017-10-11T14:40:00.494Z,66.8
2017-10-11T14:41:02.686Z,67.9
2017-10-11T14:42:04.651Z,68.0
2017-10-11T14:43:06.400Z,67.8
2017-10-11T14:44:08.231Z,67.1
2017-10-11T14:45:10.010Z,66.6
2017-10-11T14:46:11.759Z,65.9
2017-10-11T14:47:13.407Z,66.4
2017-10-11T14:48:15.146Z,65.9
2017-10-11T14:49:16.847Z,67.3
2017-10-11T14:50:18.550Z,69.9
2017-10-11T14:51:22.718Z,70.1
2017-10-11T14:52:24.647Z,72.3
2017-10-11T14:53:26.748Z,72.9
2017-10-11T14:54:28.725Z,72.3
2017-10-11T14:55:30.588Z,71.4
2017-10-11T14:56:32.853Z,71.7
2017-10-11T14:57:34.979Z,71.6
2017-10-11T14:58:36.946Z,71.4
2017-10-11T14:59:38.694Z,71.5
2017-10-11T15:02:22.002Z,71.5
2017-10-11T15:03:23.992Z,70.6
2017-10-11T15:04:26.539Z,71.2
2017-10-11T15:05:28.543Z,71.4
2017-10-11T15:06:30.690Z,71.3
2017-10-11T15:07:32.829Z,71.5
2017-10-11T15:08:34.705Z,71.5
2017-10-11T15:09:36.771Z,71.9
2017-10-11T15:10:38.648Z,72.6
2017-10-11T15:11:40.630Z,72.7
2017-10-11T15:12:42.681Z,72.5
2017-10-11T15:13:44.715Z,73.1
2017-10-11T15:14:46.773Z,74.0
2017-10-11T15:15:48.515Z,74.6
2017-10-11T15:16:50.314Z,74.6
2017-10-11T15:17:52.508Z,74.9
2017-10-11T15:18:54.387Z,75.0
2017-10-11T15:19:56.462Z,74.7
2017-10-11T15:20:58.758Z,73.2
2017-10-11T15:22:00.691Z,73.8
2017-10-11T15:23:02.574Z,73.4
2017-10-11T15:24:04.241Z,74.5
2017-10-11T15:25:06.406Z,74.6
2017-10-11T15:26:08.451Z,74.3
2017-10-11T15:27:10.211Z,73.4
2017-10-11T15:28:12.211Z,72.7
2017-10-11T15:29:14.314Z,73.0
2017-10-11T15:30:16.185Z,73.2
2017-10-11T15:31:18.061Z,72.9
2017-10-11T15:34:01.004Z,73.3
2017-10-11T15:35:03.147Z,74.4
2017-10-11T15:36:04.758Z,74.4
2017-10-11T15:37:06.581Z,74.6
2017-10-11T15:38:08.361Z,75.1
2017-10-11T15:39:10.082Z,74.9
2017-10-11T15:40:11.721Z,75.1
2017-10-11T15:41:13.490Z,76.3
2017-10-11T15:42:15.491Z,77.2
2017-10-11T15:43:17.428Z,78.0
2017-10-11T15:44:19.070Z,79.2
2017-10-11T15:45:20.963Z,78.7
2017-10-11T15:46:22.642Z,78.2
2017-10-11T15:47:24.798Z,78.6
2017-10-11T15:48:26.656Z,78.0
2017-10-11T15:49:28.539Z,78.1
2017-10-11T15:50:30.342Z,77.5
2017-10-11T15:51:32.828Z,77.9
2017-10-11T15:52:34.538Z,78.1
2017-10-11T15:53:36.186Z,78.7
2017-10-11T15:54:38.150Z,78.8
2017-10-11T15:55:39.936Z,79.5
2017-10-11T15:56:41.868Z,79.4
2017-10-11T15:57:43.982Z,79.2
2017-10-11T15:58:46.049Z,78.5
2017-10-11T15:59:48.152Z,78.1
2017-10-11T16:00:50.922Z,77.8
2017-10-11T16:01:52.704Z,78.3
2017-10-11T16:02:54.453Z,78.1
2017-10-11T16:03:56.290Z,78.4
2017-10-11T16:05:40.483Z,79.0
